Time;durP1;ratioP1;P1;durP2;ratioP2;P2;SDS_P1;SDS_P2;PMS_P1;PMS_P2;Temp;Humidity;BMP_temperature;BMP_pressure;BME280_temperature;BME280_humidity;BME280_pressure;Samples;Min_cycle;Max_cycle;Signal;HPM_P1;HPM_P2
2021/09/07 00:00:47;;;;;;;16.83;14.13;;;15.10;99.90;;;;;;5119516;27;20115;-74
2021/09/07 00:03:13;;;;;;;14.73;11.18;;;15.10;99.90;;;;;;5090125;27;20055;-74
2021/09/07 00:05:39;;;;;;;14.90;11.40;;;15.10;99.90;;;;;;5104796;27;20038;-75
2021/09/07 00:08:05;;;;;;;17.08;13.32;;;15.10;99.90;;;;;;5105647;27;20610;-74
2021/09/07 00:10:30;;;;;;;17.38;13.07;;;15.10;99.90;;;;;;5086912;27;20027;-74
2021/09/07 00:12:56;;;;;;;19.60;13.75;;;15.00;99.90;;;;;;5088828;27;20077;-74
2021/09/07 00:15:22;;;;;;;14.48;12.25;;;15.00;99.90;;;;;;5103203;27;20107;-74
2021/09/07 00:17:48;;;;;;;16.70;13.05;;;15.00;99.90;;;;;;5083977;27;20083;-74
2021/09/07 00:20:14;;;;;;;17.48;13.23;;;15.10;99.90;;;;;;5072666;28;20502;-75
2021/09/07 00:22:42;;;;;;;16.60;13.73;;;15.00;99.90;;;;;;5086504;27;20126;-75
2021/09/07 00:25:09;;;;;;;18.33;13.55;;;15.00;99.90;;;;;;5088036;27;20047;-74
2021/09/07 00:27:35;;;;;;;17.73;13.25;;;15.10;99.90;;;;;;5098995;27;20096;-74
2021/09/07 00:30:01;;;;;;;14.70;11.70;;;15.10;99.90;;;;;;5073620;27;20050;-75
2021/09/07 00:32:27;;;;;;;15.75;12.02;;;15.10;99.90;;;;;;5100936;27;20428;-74
2021/09/07 00:34:53;;;;;;;17.38;14.25;;;15.10;99.90;;;;;;5069090;28;20158;-75
2021/09/07 00:37:22;;;;;;;19.77;14.38;;;15.10;99.90;;;;;;5104820;28;20413;-74
2021/09/07 00:39:47;;;;;;;19.33;13.05;;;15.10;99.90;;;;;;5121162;27;20108;-74
2021/09/07 00:42:15;;;;;;;19.17;13.48;;;15.10;99.90;;;;;;5097326;27;20133;-74
2021/09/07 00:44:40;;;;;;;16.08;13.52;;;15.10;99.90;;;;;;5099493;27;20039;-74
2021/09/07 00:47:06;;;;;;;17.33;14.10;;;15.10;99.90;;;;;;5083429;28;20046;-75
2021/09/07 00:49:33;;;;;;;18.42;12.95;;;15.10;99.90;;;;;;5088358;28;20032;-74
2021/09/07 00:51:59;;;;;;;18.92;14.20;;;15.10;99.90;;;;;;5086383;28;20051;-75
2021/09/07 00:54:28;;;;;;;15.93;13.25;;;15.10;99.90;;;;;;5073459;28;20050;-75
2021/09/07 00:56:55;;;;;;;15.65;12.70;;;15.10;99.90;;;;;;5134161;27;20119;-75
2021/09/07 00:59:22;;;;;;;18.75;14.07;;;15.10;99.90;;;;;;5076297;28;20032;-74
2021/09/07 01:01:49;;;;;;;20.40;13.57;;;15.10;99.90;;;;;;5070488;28;20046;-75
2021/09/07 01:04:16;;;;;;;14.85;11.98;;;15.10;99.90;;;;;;5069507;28;20054;-74
2021/09/07 01:06:43;;;;;;;16.13;11.57;;;15.10;99.90;;;;;;5100022;28;20051;-74
2021/09/07 01:09:09;;;;;;;15.95;12.85;;;15.10;99.90;;;;;;5109892;27;20055;-74
2021/09/07 01:11:37;;;;;;;14.32;12.07;;;15.00;99.90;;;;;;5102364;27;20050;-75
2021/09/07 01:14:05;;;;;;;16.63;12.68;;;15.10;99.90;;;;;;5119283;27;20643;-75
2021/09/07 01:16:31;;;;;;;15.48;13.13;;;15.10;99.90;;;;;;5088094;27;20148;-75
2021/09/07 01:18:59;;;;;;;17.20;13.57;;;15.10;99.90;;;;;;5090207;28;20055;-74
2021/09/07 01:21:26;;;;;;;14.40;11.65;;;15.10;99.90;;;;;;5101992;27;20042;-75
2021/09/07 01:23:52;;;;;;;17.15;12.93;;;15.10;99.90;;;;;;5105485;27;20570;-74
2021/09/07 01:26:20;;;;;;;16.33;13.93;;;15.10;99.90;;;;;;5106876;27;20083;-74
2021/09/07 01:28:46;;;;;;;17.30;14.60;;;15.00;99.90;;;;;;5091643;27;20035;-74
2021/09/07 01:31:13;;;;;;;15.73;12.68;;;15.00;99.90;;;;;;5118889;27;20392;-75
2021/09/07 01:33:39;;;;;;;16.45;11.77;;;15.00;99.90;;;;;;5074461;27;20082;-75
2021/09/07 01:36:05;;;;;;;16.02;13.00;;;15.00;99.90;;;;;;5093708;27;20058;-74
2021/09/07 01:38:32;;;;;;;15.32;11.95;;;15.00;99.90;;;;;;5071763;27;20062;-74
2021/09/07 01:40:59;;;;;;;14.80;11.65;;;15.00;99.90;;;;;;5109006;27;20497;-75
2021/09/07 01:43:25;;;;;;;13.77;11.45;;;15.00;99.90;;;;;;5105923;27;20156;-74
2021/09/07 01:45:52;;;;;;;15.77;13.23;;;15.00;99.90;;;;;;5089419;27;20141;-74
2021/09/07 01:48:19;;;;;;;16.75;13.95;;;15.00;99.90;;;;;;5087601;27;20620;-75
2021/09/07 01:50:46;;;;;;;17.05;13.43;;;15.00;99.90;;;;;;5108654;27;20378;-75
2021/09/07 01:53:12;;;;;;;17.85;14.95;;;15.00;99.90;;;;;;5090345;27;20725;-75
2021/09/07 01:55:37;;;;;;;18.95;15.35;;;15.00;99.90;;;;;;5107002;27;20046;-74
2021/09/07 01:58:07;;;;;;;16.67;12.23;;;14.90;99.90;;;;;;5087893;27;20039;-75
2021/09/07 02:00:32;;;;;;;17.67;14.05;;;14.90;99.90;;;;;;5103493;27;20074;-74
2021/09/07 02:02:59;;;;;;;19.95;14.13;;;14.90;99.90;;;;;;5090178;28;20078;-75
2021/09/07 02:05:28;;;;;;;19.15;12.70;;;14.90;99.90;;;;;;5098643;27;20039;-75
2021/09/07 02:07:54;;;;;;;16.98;14.57;;;15.00;99.90;;;;;;5095681;28;20660;-75
2021/09/07 02:10:20;;;;;;;16.80;14.27;;;14.90;99.90;;;;;;5126772;27;20035;-75
2021/09/07 02:12:47;;;;;;;18.55;14.05;;;14.90;99.90;;;;;;5105271;27;20046;-75
2021/09/07 02:15:16;;;;;;;16.30;13.40;;;14.90;99.90;;;;;;5107762;27;20130;-74
2021/09/07 02:17:42;;;;;;;19.17;14.07;;;14.90;99.90;;;;;;5092528;27;20054;-74
2021/09/07 02:20:11;;;;;;;20.55;14.00;;;14.90;99.90;;;;;;5107345;27;20718;-75
2021/09/07 02:22:37;;;;;;;20.02;14.13;;;14.90;99.90;;;;;;5123499;27;20035;-74
2021/09/07 02:25:09;;;;;;;15.52;13.43;;;14.90;99.90;;;;;;5075830;27;20047;-75
2021/09/07 02:27:35;;;;;;;19.88;16.80;;;14.90;99.90;;;;;;5071797;27;20077;-75
2021/09/07 02:30:01;;;;;;;17.33;14.68;;;14.90;99.90;;;;;;5089315;27;20047;-75
2021/09/07 02:32:27;;;;;;;18.70;14.27;;;14.90;99.90;;;;;;5073094;27;20039;-75
2021/09/07 02:34:53;;;;;;;16.17;13.48;;;14.90;99.90;;;;;;5103983;27;20035;-75
2021/09/07 02:37:22;;;;;;;17.52;13.82;;;14.90;99.90;;;;;;5107430;27;20047;-75
2021/09/07 02:39:47;;;;;;;17.48;13.18;;;14.90;99.90;;;;;;5137084;27;20073;-75
2021/09/07 02:42:13;;;;;;;16.75;13.85;;;14.80;99.90;;;;;;5088094;27;20055;-75
2021/09/07 02:44:39;;;;;;;17.92;13.55;;;14.80;99.90;;;;;;5105312;27;20043;-75
2021/09/07 02:47:05;;;;;;;14.85;13.07;;;14.80;99.90;;;;;;5073742;27;20131;-75
2021/09/07 02:49:31;;;;;;;14.55;12.13;;;14.70;99.90;;;;;;5075636;27;20041;-75
2021/09/07 02:51:56;;;;;;;21.08;15.60;;;14.70;99.90;;;;;;5058390;27;20493;-75
2021/09/07 02:54:24;;;;;;;19.50;14.20;;;14.70;99.90;;;;;;5080358;27;20404;-75
2021/09/07 02:56:50;;;;;;;17.55;13.90;;;14.70;99.90;;;;;;5105920;27;20454;-75
2021/09/07 02:59:16;;;;;;;18.08;13.95;;;14.80;99.90;;;;;;5101147;27;20063;-75
2021/09/07 03:01:42;;;;;;;17.92;12.93;;;14.80;99.90;;;;;;5096994;27;20031;-75
2021/09/07 03:04:08;;;;;;;20.27;15.05;;;14.80;99.90;;;;;;5103669;27;20051;-75
2021/09/07 03:06:37;;;;;;;16.77;13.93;;;14.80;99.90;;;;;;5105234;27;20058;-75
2021/09/07 03:09:06;;;;;;;17.67;14.05;;;14.80;99.90;;;;;;5088308;27;20047;-75
2021/09/07 03:11:32;;;;;;;18.05;14.65;;;14.80;99.90;;;;;;5087036;27;20035;-75
2021/09/07 03:13:58;;;;;;;15.70;13.73;;;14.80;99.90;;;;;;5098827;27;20054;-75
2021/09/07 03:16:24;;;;;;;18.50;14.93;;;14.90;99.90;;;;;;5081395;27;20083;-75
2021/09/07 03:18:50;;;;;;;17.80;14.10;;;14.90;99.90;;;;;;5087692;27;20063;-75
2021/09/07 03:21:16;;;;;;;18.58;14.57;;;14.90;99.90;;;;;;5104306;27;20047;-75
2021/09/07 03:23:42;;;;;;;22.88;16.90;;;14.90;99.90;;;;;;5103073;27;20039;-76
2021/09/07 03:26:09;;;;;;;20.00;16.60;;;14.90;99.90;;;;;;5085791;27;20405;-75
2021/09/07 03:28:35;;;;;;;19.20;15.50;;;14.90;99.90;;;;;;5100280;27;22268;-75
2021/09/07 03:31:01;;;;;;;25.23;18.23;;;14.90;99.90;;;;;;5089703;27;20405;-75
2021/09/07 03:33:27;;;;;;;22.67;15.30;;;14.90;99.90;;;;;;5101988;27;20397;-75
2021/09/07 03:35:52;;;;;;;20.75;16.58;;;14.90;99.90;;;;;;5101674;27;20047;-75
2021/09/07 03:38:18;;;;;;;20.10;16.88;;;15.00;99.90;;;;;;5081331;27;20043;-75
2021/09/07 03:40:44;;;;;;;19.65;15.35;;;15.00;99.90;;;;;;5088628;27;20031;-75
2021/09/07 03:43:10;;;;;;;21.33;15.15;;;15.00;99.90;;;;;;5085544;27;20164;-75
2021/09/07 03:45:35;;;;;;;19.27;14.25;;;15.00;99.90;;;;;;5101324;27;20035;-75
2021/09/07 03:48:01;;;;;;;18.10;13.98;;;15.00;99.90;;;;;;5086106;27;20051;-76
2021/09/07 03:50:30;;;;;;;22.25;15.38;;;15.00;99.90;;;;;;5103997;27;20065;-75
2021/09/07 03:52:56;;;;;;;18.30;14.35;;;15.00;99.90;;;;;;5103095;27;20043;-75
2021/09/07 03:55:22;;;;;;;16.25;14.43;;;15.00;99.90;;;;;;5085618;27;20039;-76
2021/09/07 03:57:47;;;;;;;21.13;16.15;;;15.00;99.90;;;;;;5075003;27;20421;-75
2021/09/07 04:00:14;;;;;;;22.55;15.85;;;15.00;99.90;;;;;;5102400;27;20068;-75
2021/09/07 04:02:40;;;;;;;18.08;14.32;;;15.00;99.90;;;;;;5102287;27;20370;-75
2021/09/07 04:05:07;;;;;;;19.30;14.85;;;15.00;99.90;;;;;;5127904;27;20053;-75
2021/09/07 04:07:32;;;;;;;16.35;14.20;;;15.00;99.90;;;;;;5130118;27;20119;-75
2021/09/07 04:09:58;;;;;;;19.30;15.57;;;15.00;99.90;;;;;;5084672;28;20122;-75
2021/09/07 04:12:24;;;;;;;17.60;15.00;;;15.00;99.90;;;;;;5096659;27;20113;-75
2021/09/07 04:14:50;;;;;;;17.20;14.07;;;15.10;99.90;;;;;;5070014;28;20036;-75
2021/09/07 04:17:16;;;;;;;19.42;14.38;;;15.10;99.90;;;;;;5088769;27;20077;-75
2021/09/07 04:19:41;;;;;;;20.60;14.52;;;15.10;99.90;;;;;;5116540;27;20402;-75
2021/09/07 04:22:07;;;;;;;18.55;14.30;;;15.10;99.90;;;;;;5077094;27;20127;-75
2021/09/07 04:24:36;;;;;;;18.67;14.57;;;15.10;99.90;;;;;;5087108;27;20061;-75
2021/09/07 04:27:02;;;;;;;17.75;15.07;;;15.00;99.90;;;;;;5105449;27;20152;-75
2021/09/07 04:29:27;;;;;;;20.55;15.90;;;15.10;99.90;;;;;;5086567;27;20279;-75
2021/09/07 04:31:53;;;;;;;18.88;16.13;;;15.00;99.90;;;;;;5073615;27;20128;-75
2021/09/07 04:34:19;;;;;;;20.15;16.42;;;15.10;99.90;;;;;;5103765;27;20040;-76
2021/09/07 04:36:45;;;;;;;18.85;14.82;;;15.10;99.90;;;;;;5076266;27;20043;-75
2021/09/07 04:39:11;;;;;;;20.90;15.50;;;15.10;99.90;;;;;;5078367;27;20042;-75
2021/09/07 04:41:37;;;;;;;21.52;15.38;;;15.10;99.90;;;;;;5087145;28;20069;-75
2021/09/07 04:44:03;;;;;;;22.17;18.13;;;15.10;99.90;;;;;;5139859;27;20043;-75
2021/09/07 04:46:29;;;;;;;21.17;17.00;;;15.10;99.90;;;;;;5081394;27;20042;-75
2021/09/07 04:48:55;;;;;;;18.20;15.70;;;15.10;99.90;;;;;;5105745;27;20062;-75
2021/09/07 04:51:22;;;;;;;20.08;17.65;;;15.10;99.90;;;;;;5074337;28;20039;-75
2021/09/07 04:53:48;;;;;;;22.33;18.10;;;15.10;99.90;;;;;;5074582;28;20055;-75
2021/09/07 04:56:14;;;;;;;25.83;19.40;;;15.10;99.90;;;;;;5110320;27;20052;-75
2021/09/07 04:58:39;;;;;;;24.83;18.55;;;15.10;99.90;;;;;;5096810;28;20036;-75
2021/09/07 05:01:06;;;;;;;21.60;18.27;;;15.10;99.90;;;;;;5101669;27;20047;-75
2021/09/07 05:03:32;;;;;;;22.25;17.42;;;15.10;99.90;;;;;;5095351;27;20042;-75
2021/09/07 05:05:58;;;;;;;23.98;19.15;;;15.10;99.90;;;;;;5085247;28;20040;-75
2021/09/07 05:08:27;;;;;;;22.17;17.50;;;15.10;99.90;;;;;;5067089;27;20148;-75
2021/09/07 05:10:53;;;;;;;22.58;18.27;;;15.10;99.90;;;;;;5116145;27;20079;-75
2021/09/07 05:13:19;;;;;;;21.70;17.55;;;15.10;99.90;;;;;;5103684;27;20083;-75
2021/09/07 05:15:45;;;;;;;22.02;16.95;;;15.10;99.90;;;;;;5134452;27;20463;-75
2021/09/07 05:18:10;;;;;;;24.67;17.70;;;15.10;99.90;;;;;;5104154;27;20103;-75
2021/09/07 05:20:36;;;;;;;24.85;16.25;;;15.10;99.90;;;;;;5084310;27;20044;-75
2021/09/07 05:23:02;;;;;;;21.08;15.48;;;15.10;99.90;;;;;;5102559;27;20618;-75
2021/09/07 05:25:30;;;;;;;23.98;17.13;;;15.10;99.90;;;;;;5104529;27;20071;-75
2021/09/07 05:27:56;;;;;;;20.02;16.73;;;15.10;99.90;;;;;;5101905;27;20096;-74
2021/09/07 05:30:22;;;;;;;21.95;18.55;;;15.10;99.90;;;;;;5091783;27;20039;-74
2021/09/07 05:32:48;;;;;;;20.20;16.40;;;15.10;99.90;;;;;;5105464;27;20136;-74
2021/09/07 05:35:14;;;;;;;20.65;16.85;;;15.10;99.90;;;;;;5089979;27;20055;-80
2021/09/07 05:37:40;;;;;;;22.58;18.27;;;15.10;99.90;;;;;;5089812;27;20478;-74
2021/09/07 05:40:15;;;;;;;26.77;17.95;;;15.20;99.90;;;;;;5086022;27;20119;-74
2021/09/07 05:42:43;;;;;;;25.23;17.92;;;15.10;99.90;;;;;;5106421;27;20114;-74
2021/09/07 05:45:14;;;;;;;24.23;19.10;;;15.20;99.90;;;;;;5102804;27;20070;-74
2021/09/07 05:47:40;;;;;;;22.25;18.83;;;15.20;99.90;;;;;;5110107;27;20069;-73
2021/09/07 05:50:07;;;;;;;23.55;18.85;;;15.20;99.90;;;;;;5104077;27;20413;-74
2021/09/07 05:52:36;;;;;;;23.15;17.98;;;15.20;99.90;;;;;;5089925;27;20466;-74
2021/09/07 05:55:02;;;;;;;21.27;17.50;;;15.20;99.90;;;;;;5103123;27;20108;-75
2021/09/07 05:57:28;;;;;;;21.48;17.60;;;15.30;99.90;;;;;;5087462;27;20496;-75
2021/09/07 05:59:55;;;;;;;23.20;18.75;;;15.30;99.90;;;;;;5103184;27;20083;-75
2021/09/07 06:02:23;;;;;;;22.73;17.58;;;15.30;99.90;;;;;;5100788;27;20082;-75
2021/09/07 06:04:49;;;;;;;24.42;19.00;;;15.30;99.90;;;;;;5139576;27;20126;-75
2021/09/07 06:07:16;;;;;;;25.70;19.08;;;15.40;99.90;;;;;;5107012;27;20122;-75
2021/09/07 06:09:41;;;;;;;23.33;18.92;;;15.40;99.90;;;;;;5087763;27;20134;-75
2021/09/07 06:12:07;;;;;;;21.27;17.67;;;15.40;99.90;;;;;;5083345;27;20438;-75
2021/09/07 06:14:36;;;;;;;23.52;18.05;;;15.50;99.90;;;;;;5079799;27;20057;-75
2021/09/07 06:17:01;;;;;;;21.50;16.45;;;15.50;99.90;;;;;;5087800;27;20044;-74
2021/09/07 06:19:27;;;;;;;19.33;15.82;;;15.60;99.90;;;;;;5060881;27;20074;-74
2021/09/07 06:21:53;;;;;;;19.17;15.38;;;15.60;99.90;;;;;;5086142;27;20079;-74
2021/09/07 06:24:22;;;;;;;20.08;17.17;;;15.70;99.90;;;;;;5085302;27;20047;-79
2021/09/07 06:26:48;;;;;;;21.30;15.70;;;15.80;99.90;;;;;;5097180;27;20033;-74
2021/09/07 06:29:14;;;;;;;21.33;15.85;;;15.80;99.90;;;;;;5083747;27;20062;-75
2021/09/07 06:31:39;;;;;;;19.38;15.52;;;15.90;99.90;;;;;;5087171;27;20531;-75
2021/09/07 06:34:05;;;;;;;20.88;16.67;;;15.90;99.90;;;;;;5100433;27;20039;-74
2021/09/07 06:36:31;;;;;;;23.30;17.40;;;16.00;99.90;;;;;;5090369;27;20035;-75
2021/09/07 06:39:00;;;;;;;19.48;15.75;;;16.00;99.90;;;;;;5089301;27;20035;-75
2021/09/07 06:41:26;;;;;;;21.02;16.25;;;16.10;99.90;;;;;;5088534;27;20039;-75
2021/09/07 06:43:56;;;;;;;21.45;18.48;;;16.10;99.90;;;;;;5090944;27;20046;-74
2021/09/07 06:46:21;;;;;;;24.38;17.73;;;16.10;99.90;;;;;;5103112;27;20553;-75
2021/09/07 06:48:47;;;;;;;23.88;18.48;;;16.20;99.90;;;;;;5106416;27;20027;-76
2021/09/07 06:51:13;;;;;;;24.23;18.15;;;16.20;99.90;;;;;;5087518;27;20047;-76
2021/09/07 06:53:39;;;;;;;22.50;17.65;;;16.20;99.90;;;;;;5087701;27;20039;-76
2021/09/07 06:56:05;;;;;;;22.00;16.40;;;16.20;99.90;;;;;;5072287;27;20083;-75
2021/09/07 06:58:30;;;;;;;21.25;15.63;;;16.20;99.90;;;;;;5103105;27;20564;-76
2021/09/07 07:00:56;;;;;;;18.95;15.43;;;16.20;99.90;;;;;;5106635;27;20039;-76
2021/09/07 07:03:22;;;;;;;21.92;17.75;;;16.20;99.90;;;;;;5089525;27;20718;-76
2021/09/07 07:05:48;;;;;;;24.00;17.92;;;16.20;99.90;;;;;;5106970;27;20050;-76
2021/09/07 07:08:14;;;;;;;18.77;16.38;;;16.30;99.90;;;;;;5085907;27;20035;-76
2021/09/07 07:10:40;;;;;;;24.00;17.63;;;16.30;99.90;;;;;;5139157;27;20515;-76
2021/09/07 07:13:06;;;;;;;21.25;16.95;;;16.40;99.90;;;;;;5086405;27;20076;-77
2021/09/07 07:15:31;;;;;;;22.05;17.73;;;16.50;99.90;;;;;;5087927;27;20602;-76
2021/09/07 07:17:57;;;;;;;21.42;17.33;;;16.60;99.90;;;;;;5088062;27;20429;-75
2021/09/07 07:20:23;;;;;;;20.02;16.15;;;16.70;99.90;;;;;;5100280;27;20035;-75
2021/09/07 07:22:50;;;;;;;21.08;16.40;;;16.80;99.90;;;;;;5082748;27;20031;-76
2021/09/07 07:25:16;;;;;;;20.13;14.00;;;17.00;99.90;;;;;;5100904;27;20117;-76
2021/09/07 07:27:45;;;;;;;24.50;18.50;;;17.10;99.90;;;;;;5089934;27;20178;-76
2021/09/07 07:30:11;;;;;;;22.65;17.35;;;17.30;99.90;;;;;;5117572;27;20062;-76
2021/09/07 07:32:37;;;;;;;20.58;16.55;;;17.50;99.90;;;;;;5091435;27;20032;-75
2021/09/07 07:35:04;;;;;;;21.38;16.80;;;17.70;99.90;;;;;;5085223;27;20043;-76
2021/09/07 07:37:30;;;;;;;20.90;14.88;;;17.90;99.90;;;;;;5086821;27;20051;-75
2021/09/07 07:39:58;;;;;;;21.70;16.42;;;18.10;99.90;;;;;;5101570;27;20039;-76
2021/09/07 07:42:24;;;;;;;22.75;16.92;;;18.20;99.90;;;;;;5084167;27;20051;-75
2021/09/07 07:44:50;;;;;;;20.67;17.15;;;18.50;99.90;;;;;;5072891;27;20133;-76
2021/09/07 07:47:16;;;;;;;22.27;17.10;;;18.60;99.90;;;;;;5103079;27;20101;-75
2021/09/07 07:49:41;;;;;;;19.35;15.50;;;18.80;99.90;;;;;;5117323;27;20039;-76
2021/09/07 07:52:07;;;;;;;18.70;15.57;;;18.90;99.90;;;;;;5099963;27;20073;-75
2021/09/07 07:54:36;;;;;;;22.10;17.40;;;19.10;99.50;;;;;;5081860;27;20443;-76
2021/09/07 07:57:02;;;;;;;22.23;18.17;;;19.20;99.20;;;;;;5083080;27;20057;-75
2021/09/07 07:59:28;;;;;;;20.88;16.67;;;19.30;98.60;;;;;;5100469;27;20149;-75
2021/09/07 08:01:54;;;;;;;21.67;17.67;;;19.50;97.60;;;;;;5103083;27;20130;-76
2021/09/07 08:04:20;;;;;;;19.20;16.73;;;19.60;97.50;;;;;;5077979;27;20035;-76
2021/09/07 08:06:46;;;;;;;21.65;16.88;;;19.70;97.40;;;;;;5118677;27;20077;-76
2021/09/07 08:09:11;;;;;;;18.67;16.33;;;19.90;97.00;;;;;;5082820;27;20087;-75
2021/09/07 08:11:38;;;;;;;19.50;14.00;;;20.00;96.10;;;;;;5086586;27;20122;-75
2021/09/07 08:14:07;;;;;;;18.02;14.45;;;20.00;96.20;;;;;;5098404;27;20078;-76
2021/09/07 08:16:34;;;;;;;24.70;14.80;;;20.20;96.00;;;;;;5068957;27;20060;-74
2021/09/07 08:19:00;;;;;;;21.40;15.20;;;20.30;96.00;;;;;;5130521;27;20058;-74
2021/09/07 08:21:28;;;;;;;18.75;13.48;;;20.50;96.40;;;;;;5097847;27;20137;-74
2021/09/07 08:23:54;;;;;;;18.05;13.82;;;20.60;95.60;;;;;;5069284;27;20560;-75
2021/09/07 08:26:20;;;;;;;17.50;13.77;;;20.80;95.40;;;;;;5105279;27;20130;-74
2021/09/07 08:28:45;;;;;;;18.23;14.90;;;20.90;95.00;;;;;;5132534;27;20127;-74
2021/09/07 08:31:11;;;;;;;16.92;13.40;;;21.10;94.90;;;;;;5103452;27;20071;-75
2021/09/07 08:33:37;;;;;;;18.02;15.18;;;21.20;94.20;;;;;;5101912;27;20035;-75
2021/09/07 08:36:04;;;;;;;18.45;15.20;;;21.30;94.40;;;;;;5082023;27;20054;-74
2021/09/07 08:38:31;;;;;;;18.15;13.27;;;21.30;93.20;;;;;;5105061;27;20054;-74
2021/09/07 08:40:58;;;;;;;18.63;13.98;;;21.40;93.40;;;;;;5087787;27;20151;-75
2021/09/07 08:43:24;;;;;;;18.65;14.30;;;21.50;93.30;;;;;;5104899;27;20039;-75
2021/09/07 08:45:54;;;;;;;19.58;14.95;;;21.60;92.70;;;;;;5138731;27;20490;-75
2021/09/07 08:48:22;;;;;;;18.45;16.05;;;21.70;92.20;;;;;;5103600;28;20122;-75
2021/09/07 08:50:49;;;;;;;17.20;14.60;;;21.70;92.50;;;;;;5104192;28;20111;-75
2021/09/07 08:53:15;;;;;;;16.35;13.73;;;21.70;92.60;;;;;;5053935;28;20744;-74
2021/09/07 08:55:41;;;;;;;16.35;13.90;;;21.80;92.70;;;;;;5085883;28;20047;-74
2021/09/07 08:58:07;;;;;;;19.85;15.60;;;21.90;92.70;;;;;;5070667;28;20139;-74
2021/09/07 09:00:33;;;;;;;18.40;15.30;;;22.00;92.70;;;;;;5070327;28;20042;-74
2021/09/07 09:03:12;;;;;;;18.52;14.00;;;22.10;92.10;;;;;;5083550;27;20035;-74
2021/09/07 09:05:44;;;;;;;19.40;15.40;;;22.20;91.70;;;;;;5103177;28;20050;-74
2021/09/07 09:08:15;;;;;;;17.27;13.90;;;22.30;92.20;;;;;;5101687;28;20566;-74
2021/09/07 09:10:46;;;;;;;18.27;15.05;;;22.40;91.40;;;;;;5087632;28;20061;-74
2021/09/07 09:13:14;;;;;;;16.23;12.80;;;22.50;90.00;;;;;;5099328;28;20043;-75
2021/09/07 09:15:40;;;;;;;16.88;13.75;;;22.60;90.60;;;;;;5098336;28;20036;-75
2021/09/07 09:18:12;;;;;;;16.08;13.38;;;22.70;90.00;;;;;;5103683;28;20618;-75
2021/09/07 09:20:39;;;;;;;17.52;13.90;;;22.80;90.10;;;;;;5080497;28;20103;-74
2021/09/07 09:23:08;;;;;;;15.90;13.75;;;23.00;90.10;;;;;;5099166;28;20447;-75
2021/09/07 09:25:37;;;;;;;14.15;12.05;;;23.10;89.30;;;;;;5102836;27;20442;-75
2021/09/07 09:28:21;;;;;;;14.57;12.07;;;23.20;88.00;;;;;;5097435;28;20063;-75
2021/09/07 09:30:54;;;;;;;16.27;12.73;;;23.30;85.90;;;;;;5113720;27;20054;-75
2021/09/07 09:33:25;;;;;;;17.10;11.82;;;23.40;86.70;;;;;;5098774;28;20043;-75
2021/09/07 09:35:55;;;;;;;14.88;12.13;;;23.50;86.60;;;;;;5103008;27;20118;-75
2021/09/07 09:38:24;;;;;;;15.50;12.63;;;23.70;85.10;;;;;;5103623;28;20047;-75
2021/09/07 09:41:01;;;;;;;17.05;13.32;;;23.70;85.40;;;;;;5100713;27;20036;-74
2021/09/07 09:43:27;;;;;;;13.95;10.93;;;23.80;84.30;;;;;;5102690;27;20501;-74
2021/09/07 09:45:55;;;;;;;16.20;12.82;;;23.90;84.30;;;;;;5102428;27;20047;-74
2021/09/07 09:48:23;;;;;;;14.25;11.40;;;23.80;79.50;;;;;;5102528;27;20135;-75
2021/09/07 09:50:53;;;;;;;17.23;12.05;;;23.80;82.30;;;;;;5099884;27;20096;-74
2021/09/07 09:53:20;;;;;;;18.02;12.35;;;23.80;81.70;;;;;;5067208;27;20047;-74
2021/09/07 09:55:48;;;;;;;13.90;10.88;;;23.90;82.10;;;;;;5115556;27;20042;-75
2021/09/07 09:58:17;;;;;;;14.63;11.98;;;23.90;83.20;;;;;;5109703;27;20051;-74
2021/09/07 10:00:48;;;;;;;17.70;13.35;;;24.00;84.10;;;;;;5090192;27;20088;-74
2021/09/07 10:03:15;;;;;;;16.38;12.70;;;23.90;81.10;;;;;;5084145;27;20504;-75
2021/09/07 10:05:42;;;;;;;15.52;12.93;;;23.90;80.80;;;;;;5101308;27;20118;-74
2021/09/07 10:08:11;;;;;;;15.23;12.73;;;23.90;80.00;;;;;;5102627;27;20039;-74
2021/09/07 10:10:58;;;;;;;18.70;13.20;;;23.90;82.20;;;;;;5102758;27;20062;-74
2021/09/07 10:13:27;;;;;;;15.30;12.57;;;24.00;82.10;;;;;;5097749;27;20331;-75
2021/09/07 10:16:05;;;;;;;14.98;12.40;;;24.10;82.10;;;;;;5102987;27;20043;-74
2021/09/07 10:18:47;;;;;;;18.55;15.00;;;24.20;81.30;;;;;;5084144;27;20134;-74
2021/09/07 10:26:38;;;;;;;14.02;11.68;;;24.40;79.20;;;;;;5096221;27;20450;-75
2021/09/07 10:29:39;;;;;;;16.05;14.35;;;24.50;80.40;;;;;;5081947;27;20158;-74
2021/09/07 10:32:29;;;;;;;16.02;14.35;;;24.50;79.60;;;;;;5097458;27;20058;-74
2021/09/07 10:35:07;;;;;;;14.35;12.18;;;24.50;76.80;;;;;;5098705;27;20126;-74
2021/09/07 10:38:07;;;;;;;14.00;12.07;;;24.40;79.80;;;;;;5099893;27;20512;-74
2021/09/07 10:40:49;;;;;;;18.65;13.00;;;24.50;78.00;;;;;;5102502;27;20649;-75
2021/09/07 10:43:51;;;;;;;17.02;13.18;;;24.60;77.50;;;;;;5078162;27;20044;-75
2021/09/07 10:46:58;;;;;;;16.00;12.80;;;24.50;78.30;;;;;;5092224;27;20043;-75
2021/09/07 10:49:37;;;;;;;16.05;13.57;;;24.50;77.90;;;;;;5083164;27;20051;-75
2021/09/07 10:52:12;;;;;;;15.45;12.95;;;24.40;73.50;;;;;;5083448;27;20097;-75
2021/09/07 10:54:53;;;;;;;15.88;12.65;;;24.40;76.80;;;;;;5095777;28;20050;-75
2021/09/07 10:57:35;;;;;;;15.27;12.45;;;24.40;77.80;;;;;;5128052;27;20397;-75
2021/09/07 11:00:14;;;;;;;15.32;11.57;;;24.50;76.90;;;;;;5076073;27;20065;-75
2021/09/07 11:02:46;;;;;;;16.45;13.27;;;24.50;77.90;;;;;;5126844;27;20046;-74
2021/09/07 11:05:37;;;;;;;17.30;13.20;;;24.60;76.70;;;;;;5102774;27;20058;-75
2021/09/07 11:08:12;;;;;;;16.52;13.10;;;24.70;76.90;;;;;;5080921;27;20115;-75
2021/09/07 11:10:39;;;;;;;18.48;14.40;;;24.70;77.50;;;;;;5091167;27;20055;-75
2021/09/07 11:13:15;;;;;;;17.85;13.50;;;24.70;75.70;;;;;;5104040;27;20055;-74
2021/09/07 11:15:43;;;;;;;17.63;14.95;;;24.70;76.70;;;;;;5096909;27;20075;-74
2021/09/07 11:18:14;;;;;;;16.85;13.52;;;24.70;74.50;;;;;;5112576;27;20090;-74
2021/09/07 11:20:43;;;;;;;19.20;13.13;;;24.70;75.20;;;;;;5094753;27;20055;-74
2021/09/07 11:23:32;;;;;;;21.00;14.38;;;24.70;75.60;;;;;;5097446;27;20047;-74
2021/09/07 11:25:59;;;;;;;18.23;14.68;;;24.60;75.50;;;;;;5100284;28;20051;-75
2021/09/07 11:28:25;;;;;;;15.68;12.77;;;24.70;75.70;;;;;;5124434;27;20379;-74
2021/09/07 11:30:52;;;;;;;17.92;15.30;;;24.70;76.60;;;;;;5091540;27;20069;-75
2021/09/07 11:33:27;;;;;;;16.98;14.07;;;24.70;75.20;;;;;;5113567;27;20122;-74
2021/09/07 11:35:55;;;;;;;17.83;13.40;;;24.80;74.40;;;;;;5104462;27;20129;-74
2021/09/07 11:38:24;;;;;;;17.42;13.68;;;24.90;75.10;;;;;;5083916;27;20043;-74
2021/09/07 11:40:59;;;;;;;14.73;13.07;;;25.10;76.40;;;;;;5090286;27;20046;-74
2021/09/07 11:43:37;;;;;;;16.13;13.77;;;25.20;73.40;;;;;;5084753;27;20058;-74
2021/09/07 11:46:11;;;;;;;16.52;13.70;;;25.30;73.80;;;;;;5091542;28;20643;-74
2021/09/07 11:48:43;;;;;;;19.20;15.30;;;25.30;72.30;;;;;;5097939;27;20038;-75
2021/09/07 11:51:10;;;;;;;18.10;13.80;;;25.30;73.00;;;;;;5101080;27;20058;-74
2021/09/07 11:53:36;;;;;;;18.33;14.32;;;25.30;73.30;;;;;;5091451;27;20047;-74
2021/09/07 11:56:02;;;;;;;19.60;13.85;;;25.40;74.40;;;;;;5078416;27;20047;-73
2021/09/07 11:58:31;;;;;;;17.02;14.73;;;25.50;76.20;;;;;;5105681;27;20517;-74
2021/09/07 12:01:20;;;;;;;17.10;14.68;;;25.60;73.70;;;;;;5088140;27;20038;-74
2021/09/07 12:04:06;;;;;;;16.60;13.83;;;25.60;69.90;;;;;;5127792;27;20130;-74
2021/09/07 12:06:40;;;;;;;17.60;13.32;;;25.60;72.80;;;;;;5084392;27;20060;-74
2021/09/07 12:09:36;;;;;;;15.50;13.30;;;25.60;72.80;;;;;;5096699;27;20378;-74
2021/09/07 12:12:08;;;;;;;16.38;14.40;;;25.60;75.50;;;;;;5082415;27;20088;-74
2021/09/07 12:14:43;;;;;;;17.40;13.27;;;25.60;74.70;;;;;;5097327;27;20039;-74
2021/09/07 12:17:17;;;;;;;15.88;13.52;;;25.70;73.00;;;;;;5088904;28;20059;-74
2021/09/07 12:19:53;;;;;;;16.45;14.65;;;25.70;71.80;;;;;;5084156;28;20418;-74
2021/09/07 12:22:20;;;;;;;13.95;12.43;;;25.60;70.80;;;;;;5078032;28;20043;-73
2021/09/07 12:25:14;;;;;;;17.08;13.48;;;25.50;70.50;;;;;;5098401;28;20085;-74
2021/09/07 12:27:57;;;;;;;16.98;13.98;;;25.40;72.20;;;;;;5088714;28;20566;-74
2021/09/07 12:30:23;;;;;;;16.08;12.95;;;25.40;72.80;;;;;;5097475;28;20642;-74
2021/09/07 12:32:50;;;;;;;21.23;15.45;;;25.50;75.00;;;;;;5068003;28;20555;-74
2021/09/07 12:35:28;;;;;;;17.98;15.02;;;25.50;73.30;;;;;;5100326;28;20493;-74
2021/09/07 12:37:54;;;;;;;13.65;11.98;;;25.50;72.10;;;;;;5095648;28;20132;-74
2021/09/07 12:40:20;;;;;;;15.95;14.00;;;25.50;72.90;;;;;;5098944;28;20084;-74